Novato, CA

2:30 PM PDT on April 24, 2018 (GMT -0700)
Gnoss

Weather History for KDVO - April, 2013

Change the Weather History Date:

Wednesday, April 24, 2013

  Actual Average (KAPC) Record (KAPC)
Temperature  
Mean Temperature 56 °F -  
Max Temperature 68 °F 70 °F 82 °F (2004)
Min Temperature 44 °F 44 °F 25 °F (2008)
Degree Days  
Heating Degree Days 9    
Growing Degree Days 6 (Base 50)    
Moisture  
Dew Point 49 °F    
Average Humidity 86    
Maximum Humidity 100    
Minimum Humidity 56    
Precipitation  
Precipitation 0.00 in - - ()
Sea Level Pressure  
Sea Level Pressure 29.90 in    
Wind  
Wind Speed 7 mph (NNW)    
Max Wind Speed 16 mph    
Max Gust Speed 23 mph    
Visibility 9 miles    
Events Fog    
Averages and records for this station are not official NWS values.
T = Trace of Precipitation, MM = Missing Value Source: NWS Daily Summary

Daily Weather History Graph

Daily Weather History Graph

Search for Another Location

Airport or City:

Astronomy

Apr. 24, 2013 Rise Set
Actual Time 6:22 AM PDT 7:55 PM PDT
Civil Twilight 5:54 AM PDT 8:23 PM PDT
Nautical Twilight 5:20 AM PDT 8:56 PM PDT
Astronomical Twilight 4:45 AM PDT 9:32 PM PDT
Moon 7:05 PM PDT 5:28 AM PDT
Length of Visible Light 14h 28m
Length of Day
13h 33m
Waxing Gibbous, 98% of the Moon is Illuminated
Apr 24
Waxing Gibbous
Apr 25
Full
May 2
Last Quarter
May 9
New
May 17
First Quarter

Hourly Weather History & Observations

Time (PDT) Temp. Windchill Dew Point Humidity Pressure Visibility Wind Dir Wind Speed Gust Speed Precip Events Conditions
12:15 AM 46.4 °F 41.5 °F 46.4 °F 100% 29.91 in 8.0 mi North 10.4 mph - N/A   Partly Cloudy
12:35 AM 46.4 °F 41.9 °F 46.4 °F 100% 29.91 in 10.0 mi NNW 9.2 mph - N/A   Clear
12:55 AM 46.4 °F 43.5 °F 46.4 °F 100% 29.91 in 9.0 mi NNW 5.8 mph - N/A   Clear
1:15 AM 46.4 °F 45.2 °F 46.4 °F 100% 29.91 in 10.0 mi NW 3.5 mph - N/A   Clear
1:35 AM 44.6 °F 40.7 °F 44.6 °F 100% 29.91 in 8.0 mi NNW 6.9 mph - N/A   Clear
1:55 AM 44.6 °F - 44.6 °F 100% 29.90 in 9.0 mi Calm Calm - N/A   Clear
2:15 AM 44.6 °F 41.4 °F 44.6 °F 100% 29.90 in 9.0 mi NNW 5.8 mph - N/A   Mostly Cloudy
2:35 AM 44.6 °F 40.7 °F 44.6 °F 100% 29.89 in 5.0 mi NNW 6.9 mph - N/A   Mostly Cloudy
2:55 AM 46.4 °F 42.4 °F 46.4 °F 100% 29.88 in 6.0 mi North 8.1 mph - N/A   Overcast
3:15 AM 44.6 °F 41.4 °F 44.6 °F 100% 29.88 in 6.0 mi NNW 5.8 mph - N/A   Mostly Cloudy
3:35 AM 44.6 °F 42.2 °F 44.6 °F 100% 29.88 in 6.0 mi NNW 4.6 mph - N/A   Mostly Cloudy
3:55 AM 44.6 °F 42.2 °F 44.6 °F 100% 29.87 in 8.0 mi North 4.6 mph - N/A   Overcast
4:15 AM 44.6 °F 40.7 °F 44.6 °F 100% 29.87 in 7.0 mi NNW 6.9 mph - N/A   Unknown
4:35 AM 44.6 °F 41.4 °F 44.6 °F 100% 29.87 in 10.0 mi NNW 5.8 mph - N/A   Unknown
4:55 AM 44.6 °F 43.1 °F 44.6 °F 100% 29.87 in 10.0 mi West 3.5 mph - N/A   Unknown
5:15 AM 44.6 °F 43.1 °F 44.6 °F 100% 29.87 in 8.0 mi WNW 3.5 mph - N/A   Unknown
5:35 AM 44.6 °F 43.1 °F 44.6 °F 100% 29.87 in 8.0 mi West 3.5 mph - N/A   Unknown
5:55 AM 44.6 °F - 44.6 °F 100% 29.87 in 9.0 mi Calm Calm - N/A   Unknown
6:15 AM 44.6 °F - 44.6 °F 100% 29.87 in 8.0 mi Calm Calm - N/A   Unknown
6:35 AM 44.6 °F - 44.6 °F 100% 29.87 in 3.0 mi Calm Calm - N/A   Overcast
6:55 AM 44.6 °F - 44.6 °F 100% 29.87 in 2.0 mi Calm Calm - N/A   Overcast
7:15 AM 44.6 °F - 44.6 °F 100% 29.88 in 0.2 mi Calm Calm - N/A Fog Fog
7:35 AM 44.6 °F - 44.6 °F 100% 29.89 in 0.8 mi Calm Calm - N/A   Overcast
7:55 AM 44.6 °F - 44.6 °F 100% 29.90 in 2.0 mi Calm Calm - N/A   Overcast
8:15 AM 46.4 °F 44.3 °F 46.4 °F 100% 29.90 in 2.5 mi North 4.6 mph - N/A   Overcast
8:35 AM 46.4 °F 44.3 °F 46.4 °F 100% 29.90 in 4.0 mi NNW 4.6 mph - N/A   Overcast
8:55 AM 46.4 °F 42.9 °F 46.4 °F 100% 29.90 in 7.0 mi North 6.9 mph - N/A   Mostly Cloudy
9:15 AM 48.2 °F - 48.2 °F 100% 29.91 in 10.0 mi North 9.2 mph - N/A   Partly Cloudy
9:35 AM 50.0 °F - 48.2 °F 94% 29.91 in 10.0 mi North 9.2 mph - N/A   Clear
9:55 AM 53.6 °F - 48.2 °F 82% 29.91 in 10.0 mi North 9.2 mph - N/A   Clear
10:15 AM 53.6 °F - 50.0 °F 88% 29.91 in 10.0 mi NNE 9.2 mph - N/A   Clear
10:35 AM 55.4 °F - 50.0 °F 82% 29.91 in 10.0 mi NNE 9.2 mph - N/A   Clear
10:55 AM 57.2 °F - 51.8 °F 82% 29.90 in 10.0 mi NNE 9.2 mph - N/A   Clear
11:15 AM 60.8 °F - 53.6 °F 77% 29.91 in - NNE 9.2 mph - N/A   Clear
11:35 AM 62.6 °F - 53.6 °F 72% 29.90 in 10.0 mi NNE 9.2 mph - N/A   Clear
11:55 AM 64.4 °F - 53.6 °F 68% 29.90 in 10.0 mi NE 6.9 mph - N/A   Clear
12:15 PM 64.4 °F - 53.6 °F 68% 29.90 in 10.0 mi North 10.4 mph - N/A   Clear
12:35 PM 64.4 °F - 55.4 °F 73% 29.90 in 10.0 mi North 12.7 mph 17.3 mph N/A   Clear
12:55 PM 64.4 °F - 55.4 °F 73% 29.89 in 10.0 mi North 16.1 mph - N/A   Clear
1:15 PM 66.2 °F - 53.6 °F 64% 29.89 in 10.0 mi NNW 11.5 mph - N/A   Clear
1:35 PM 68.0 °F - 53.6 °F 60% 29.89 in 10.0 mi NNW 9.2 mph - N/A   Clear
1:55 PM 68.0 °F - 53.6 °F 60% 29.88 in 10.0 mi NNW 11.5 mph - N/A   Clear
2:15 PM 68.0 °F - 53.6 °F 60% 29.88 in 10.0 mi NNW 12.7 mph - N/A   Clear
2:35 PM 68.0 °F - 53.6 °F 60% 29.88 in 10.0 mi NNW 12.7 mph - N/A   Clear
2:55 PM 68.0 °F - 53.6 °F 60% 29.88 in 10.0 mi NNW 13.8 mph - N/A   Clear
3:15 PM 66.2 °F - 53.6 °F 64% 29.87 in 10.0 mi NNW 15.0 mph - N/A   Clear
3:35 PM 68.0 °F - 53.6 °F 60% 29.87 in 10.0 mi NNW 12.7 mph - N/A   Clear
3:55 PM 68.0 °F - 53.6 °F 60% 29.87 in 10.0 mi NNW 12.7 mph - N/A   Clear
4:15 PM 68.0 °F - 51.8 °F 56% 29.87 in 10.0 mi West 6.9 mph 23.0 mph N/A   Clear
4:35 PM 66.2 °F - 50.0 °F 56% 29.87 in 10.0 mi WSW 8.1 mph - N/A   Clear
4:55 PM 64.4 °F - 48.2 °F 56% 29.87 in 10.0 mi WSW 11.5 mph - N/A   Clear
5:15 PM 62.6 °F - 48.2 °F 59% 29.87 in 10.0 mi WSW 11.5 mph - N/A   Clear
5:35 PM 62.6 °F - 48.2 °F 59% 29.87 in 10.0 mi WSW 11.5 mph - N/A   Clear
5:55 PM 59.0 °F - 48.2 °F 67% 29.88 in 10.0 mi WSW 15.0 mph 19.6 mph N/A   Clear
6:15 PM 59.0 °F - 48.2 °F 67% 29.89 in 10.0 mi WSW 12.7 mph 19.6 mph N/A   Clear
6:35 PM 57.2 °F - 48.2 °F 72% 29.90 in 10.0 mi WSW 12.7 mph - N/A   Clear
6:55 PM 55.4 °F - 48.2 °F 77% 29.90 in 10.0 mi WSW 13.8 mph 18.4 mph N/A   Clear
8:15 PM 51.8 °F - 48.2 °F 88% 29.93 in 10.0 mi NW 3.5 mph - N/A   Clear
8:35 PM 50.0 °F - 48.2 °F 94% 29.94 in 10.0 mi Calm Calm - N/A   Clear
8:55 PM 50.0 °F - 48.2 °F 94% 29.94 in 10.0 mi Calm Calm - N/A   Clear
9:15 PM 50.0 °F - 50.0 °F 100% 29.95 in 10.0 mi Calm Calm - N/A   Clear
9:35 PM 50.0 °F - 48.2 °F 94% 29.95 in 10.0 mi NNW 5.8 mph - N/A   Clear
9:55 PM 50.0 °F - 50.0 °F 100% 29.96 in 10.0 mi NNW 3.5 mph - N/A   Clear
10:15 PM 50.0 °F - 50.0 °F 100% 29.96 in 10.0 mi WNW 3.5 mph - N/A   Clear
10:35 PM 50.0 °F - 50.0 °F 100% 29.97 in 10.0 mi WNW 3.5 mph - N/A   Partly Cloudy
10:55 PM 50.0 °F - 50.0 °F 100% 29.97 in 10.0 mi WNW 3.5 mph - N/A   Partly Cloudy
11:15 PM 50.0 °F - 50.0 °F 100% 29.97 in 10.0 mi Calm Calm - N/A   Partly Cloudy
11:35 PM 48.2 °F - 48.2 °F 100% 29.97 in 10.0 mi NNW 4.6 mph - N/A   Partly Cloudy
11:55 PM 48.2 °F - 48.2 °F 100% 29.97 in 10.0 mi NNW 3.5 mph - N/A   Clear